This is the latest recevied weather packets stored in our database for station/object JA1RBY-13. If no packets are shown the sender has not sent any weather packets the latest 1 day(s).
| Time | Temp. | Humidity | Pressure | Rain* | Wind** | Luminosity | Snow |
|---|---|---|---|---|---|---|---|
| 1778106812 | 21.11° C | 54% | 1015.7 hPa | 0 mm | - | - | - |
| 1778096912 | 15.56° C | 72% | 1016.1 hPa | 0 mm | - | - | - |
| 1778096012 | 16.11° C | 72% | 1016.3 hPa | 0 mm | - | - | - |
| 1778090611 | 16.67° C | 73% | 1016.6 hPa | 0 mm | - | - | - |
| 1778089711 | 16.67° C | 73% | 1016.8 hPa | 0 mm | - | - | - |
| 1778084312 | 17.22° C | 74% | 1017.2 hPa | 0 mm | - | - | - |
| 1778083412 | 17.22° C | 74% | 1017.1 hPa | 0 mm | - | - | - |
| 1778078011 | 17.22° C | 73% | 1018.3 hPa | 0 mm | - | - | - |
| 1778077111 | 17.22° C | 73% | 1018.1 hPa | 0 mm | - | - | - |
| 1778076212 | 17.22° C | 74% | 1018.5 hPa | 0 mm | - | - | - |
| 1778072612 | 17.22° C | 73% | 1019 hPa | 0 mm | - | - | - |
| 1778071712 | 17.22° C | 73% | 1018.8 hPa | 0 mm | - | - | - |
| 1778070812 | 17.22° C | 73% | 1019.1 hPa | 0 mm | - | - | - |
| 1778067211 | 17.22° C | 71% | 1019 hPa | 0 mm | - | - | - |
| 1778066312 | 17.22° C | 70% | 1019.1 hPa | 0 mm | - | - | - |
| 1778061810 | 17.78° C | 68% | 1019.2 hPa | 0 mm | - | - | - |
| 1778060911 | 17.78° C | 66% | 1019.2 hPa | 0 mm | - | - | - |
| 1778057310 | 18.33° C | 65% | 1019.2 hPa | 0 mm | - | - | - |
| 1778055510 | 18.89° C | 63% | 1019.1 hPa | 0 mm | - | - | - |
| 1778054610 | 18.33° C | 63% | 1019.5 hPa | 0 mm | - | - | - |
| 1778053711 | 18.89° C | 63% | 1019.8 hPa | 0 mm | - | - | - |
| 1778042910 | 21.11° C | 54% | 1020.5 hPa | 0 mm | - | - | - |
| 1778040210 | 21.11° C | 54% | 1020.9 hPa | 0 mm | - | - | - |
| 1778038411 | 20.56° C | 54% | 1021.2 hPa | 0 mm | - | - | - |
| 1778037510 | 21.11° C | 52% | 1021.2 hPa | 0 mm | - | - | - |
* Rain latest hour (hover to see other rain measurements)
** Current wind speed in m/s (hover to see current wind gust speed)